Time;durP1;ratioP1;P1;durP2;ratioP2;P2;SDS_P1;SDS_P2;PMS_P1;PMS_P2;Temp;Humidity;BMP_temperature;BMP_pressure;BME280_temperature;BME280_humidity;BME280_pressure;Samples;Min_cycle;Max_cycle;Signal;HPM_P1;HPM_P2
2022/05/24 00:01:26;;;;;;;12.13;8.27;;;13.70;99.90;;;;;;5094508;28;20223;-70
2022/05/24 00:04:15;;;;;;;14.02;9.02;;;13.70;99.90;;;;;;5100586;27;20222;-71
2022/05/24 00:07:05;;;;;;;12.32;9.05;;;13.70;99.90;;;;;;5099040;28;21057;-70
2022/05/24 00:09:57;;;;;;;13.15;8.50;;;13.70;99.90;;;;;;5102463;27;20215;-69
2022/05/24 00:12:46;;;;;;;15.13;9.25;;;13.50;99.90;;;;;;5106933;27;20775;-70
2022/05/24 00:15:35;;;;;;;16.33;9.63;;;13.60;99.90;;;;;;5104009;27;20232;-70
2022/05/24 00:18:26;;;;;;;14.60;9.43;;;13.70;99.90;;;;;;5098938;27;21089;-70
2022/05/24 00:21:15;;;;;;;15.93;9.55;;;13.60;99.90;;;;;;5098419;28;20219;-69
2022/05/24 00:24:06;;;;;;;14.40;9.27;;;13.50;99.90;;;;;;5099428;28;20218;-69
2022/05/24 00:26:54;;;;;;;13.63;10.07;;;13.40;99.90;;;;;;5102142;27;20589;-71
2022/05/24 00:29:43;;;;;;;14.82;10.18;;;13.40;99.90;;;;;;5085667;28;20215;-70
2022/05/24 00:32:32;;;;;;;12.38;9.18;;;13.50;99.90;;;;;;5094545;27;20216;-70
2022/05/24 00:35:24;;;;;;;15.48;9.70;;;13.60;99.90;;;;;;5093656;28;20223;-70
2022/05/24 00:38:17;;;;;;;12.80;9.48;;;13.40;99.90;;;;;;5097547;27;20219;-70
2022/05/24 00:41:24;;;;;;;13.68;9.30;;;13.20;99.90;;;;;;5081394;28;21064;-70
2022/05/24 00:44:24;;;;;;;13.98;9.27;;;13.30;99.90;;;;;;5100910;27;20412;-70
2022/05/24 00:47:19;;;;;;;12.07;9.68;;;13.30;99.90;;;;;;5096074;28;20227;-70
2022/05/24 00:50:13;;;;;;;15.35;9.70;;;13.20;99.90;;;;;;5086794;28;20214;-70
2022/05/24 00:53:05;;;;;;;13.05;9.63;;;13.30;99.90;;;;;;5086099;27;20219;-70
2022/05/24 00:56:00;;;;;;;13.40;9.82;;;13.20;99.90;;;;;;5097185;28;20876;-70
2022/05/24 00:58:55;;;;;;;13.52;9.73;;;13.30;99.90;;;;;;5101543;27;20770;-70
2022/05/24 01:01:47;;;;;;;14.60;9.82;;;13.20;99.90;;;;;;5099544;27;20223;-71
2022/05/24 01:04:40;;;;;;;15.98;9.75;;;13.20;99.90;;;;;;5095764;28;20655;-71
2022/05/24 01:07:29;;;;;;;11.13;9.35;;;13.10;99.90;;;;;;5086194;28;20254;-68
2022/05/24 01:10:21;;;;;;;12.77;9.48;;;13.20;99.90;;;;;;5094464;28;20223;-72
2022/05/24 01:13:16;;;;;;;12.90;9.50;;;13.10;99.90;;;;;;5100681;27;20227;-72
2022/05/24 01:16:09;;;;;;;14.30;9.88;;;13.00;99.90;;;;;;5089729;27;20383;-71
2022/05/24 01:19:04;;;;;;;16.27;8.60;;;13.00;99.90;;;;;;5099762;27;20243;-71
2022/05/24 01:21:58;;;;;;;12.75;8.93;;;13.00;99.90;;;;;;5098787;28;20227;-71
2022/05/24 01:24:53;;;;;;;13.23;8.55;;;12.90;99.90;;;;;;5097282;28;20214;-70
2022/05/24 01:27:43;;;;;;;15.38;10.15;;;12.90;99.90;;;;;;5081243;28;20219;-70
2022/05/24 01:30:32;;;;;;;16.45;9.48;;;12.80;99.90;;;;;;5098793;28;20219;-70
2022/05/24 01:36:32;;;;;;;14.98;9.02;;;12.70;99.90;;;;;;5080415;28;20218;-72
2022/05/24 01:39:23;;;;;;;11.57;8.93;;;12.80;99.90;;;;;;5097510;28;20289;-70
2022/05/24 01:42:13;;;;;;;15.55;9.77;;;12.70;99.90;;;;;;5095493;28;20923;-70
2022/05/24 01:45:11;;;;;;;14.95;8.93;;;12.70;99.90;;;;;;5093085;27;20215;-71
2022/05/24 01:48:04;;;;;;;13.38;9.38;;;12.70;99.90;;;;;;5096425;28;20219;-69
2022/05/24 01:50:54;;;;;;;12.23;9.38;;;12.60;99.90;;;;;;5096684;27;20224;-70
2022/05/24 01:53:51;;;;;;;12.85;9.27;;;12.60;99.90;;;;;;5082555;27;20360;-69
2022/05/24 01:57:00;;;;;;;12.77;8.70;;;12.60;99.90;;;;;;5089976;27;20339;-71
2022/05/24 01:59:52;;;;;;;14.35;9.80;;;12.60;99.90;;;;;;5090517;28;20831;-71
2022/05/24 02:02:43;;;;;;;13.38;9.13;;;12.50;99.90;;;;;;5100028;27;20263;-71
2022/05/24 02:05:34;;;;;;;15.23;9.68;;;12.40;99.90;;;;;;5099364;27;20222;-70
2022/05/24 02:08:23;;;;;;;14.30;8.82;;;12.50;99.90;;;;;;5081967;27;20276;-72
2022/05/24 02:11:12;;;;;;;15.95;9.52;;;12.40;99.90;;;;;;5082620;28;20297;-71
2022/05/24 02:14:07;;;;;;;14.05;9.38;;;12.40;99.90;;;;;;5097340;28;20218;-72
2022/05/24 02:17:02;;;;;;;13.52;9.32;;;12.40;99.90;;;;;;5096067;27;20219;-71
2022/05/24 02:19:56;;;;;;;12.60;9.20;;;12.30;99.90;;;;;;5088071;27;20313;-70
2022/05/24 02:22:47;;;;;;;14.32;9.48;;;12.30;99.90;;;;;;5093643;28;20214;-72
2022/05/24 02:25:39;;;;;;;15.43;10.07;;;12.40;99.90;;;;;;5097744;27;20302;-71
2022/05/24 02:28:30;;;;;;;13.43;9.35;;;12.30;99.90;;;;;;5087617;27;20310;-71
2022/05/24 02:31:20;;;;;;;12.90;9.88;;;12.10;99.90;;;;;;5080244;28;20218;-71
2022/05/24 02:34:12;;;;;;;12.70;9.30;;;12.10;99.90;;;;;;5082096;27;20226;-69
2022/05/24 02:37:02;;;;;;;15.30;9.20;;;12.00;99.90;;;;;;5090324;28;20272;-71
2022/05/24 02:43:03;;;;;;;12.80;9.20;;;12.20;99.90;;;;;;5071363;27;20888;-70
2022/05/24 02:45:51;;;;;;;14.32;9.80;;;12.30;99.90;;;;;;5100367;27;20923;-71
2022/05/24 02:48:40;;;;;;;15.15;10.25;;;12.30;99.90;;;;;;5067434;28;20763;-70
2022/05/24 02:51:33;;;;;;;14.10;9.98;;;12.30;99.90;;;;;;5078284;28;20733;-71
2022/05/24 02:54:23;;;;;;;12.07;9.68;;;12.20;99.90;;;;;;5096603;28;20636;-71
2022/05/24 02:57:12;;;;;;;15.45;9.68;;;12.10;99.90;;;;;;5091706;27;20214;-71
2022/05/24 03:00:00;;;;;;;10.98;9.18;;;12.10;99.90;;;;;;5086265;28;20219;-70
2022/05/24 03:02:50;;;;;;;13.25;9.98;;;12.10;99.90;;;;;;5080785;28;20546;-70
2022/05/24 03:05:42;;;;;;;16.40;9.73;;;12.20;99.90;;;;;;5097376;28;20218;-72
2022/05/24 03:14:44;;;;;;;12.18;9.45;;;12.20;99.90;;;;;;5084482;28;20314;-73
2022/05/24 03:17:33;;;;;;;12.88;9.77;;;12.20;99.90;;;;;;5083779;28;20638;-70
2022/05/24 03:20:22;;;;;;;13.90;9.60;;;12.30;99.90;;;;;;5084090;28;20246;-72
2022/05/24 03:23:11;;;;;;;17.63;9.60;;;12.30;99.90;;;;;;5091418;28;20219;-70
2022/05/24 03:26:00;;;;;;;12.68;9.43;;;12.40;99.90;;;;;;5093024;28;20217;-71
2022/05/24 03:28:53;;;;;;;14.85;9.73;;;12.40;99.90;;;;;;5090217;28;21239;-73
2022/05/24 03:31:42;;;;;;;12.43;9.63;;;12.40;99.90;;;;;;5083317;28;20322;-73
2022/05/24 03:34:30;;;;;;;13.82;9.68;;;12.30;99.90;;;;;;5097429;28;20230;-72
2022/05/24 03:37:19;;;;;;;13.48;9.90;;;12.40;99.90;;;;;;5094789;27;20229;-71
2022/05/24 03:40:09;;;;;;;12.27;9.88;;;12.50;99.90;;;;;;5084780;28;20290;-71
2022/05/24 03:42:58;;;;;;;14.75;9.90;;;12.50;99.90;;;;;;5096667;27;20215;-71
2022/05/24 03:45:48;;;;;;;15.90;10.23;;;12.50;99.90;;;;;;5098531;27;20245;-71
2022/05/24 03:48:39;;;;;;;14.73;10.68;;;12.70;99.90;;;;;;5097041;27;20219;-70
2022/05/24 03:51:28;;;;;;;15.43;9.65;;;12.70;99.90;;;;;;5083946;27;20239;-71
2022/05/24 03:54:17;;;;;;;16.70;11.07;;;12.70;99.90;;;;;;5094215;27;20223;-71
2022/05/24 04:00:15;;;;;;;13.63;10.18;;;12.70;99.90;;;;;;5097895;27;20616;-70
2022/05/24 04:03:06;;;;;;;14.30;10.23;;;12.80;99.90;;;;;;5096905;27;20221;-71
2022/05/24 04:05:59;;;;;;;13.57;9.98;;;12.90;99.90;;;;;;5086719;27;20210;-71
2022/05/24 04:08:48;;;;;;;13.50;10.32;;;12.90;99.90;;;;;;5087078;27;20238;-70
2022/05/24 04:11:37;;;;;;;14.65;10.48;;;12.80;99.90;;;;;;5084465;27;20211;-70
2022/05/24 04:14:26;;;;;;;13.18;9.93;;;13.00;99.90;;;;;;5108866;27;20821;-71
2022/05/24 04:17:14;;;;;;;14.82;10.02;;;13.00;99.90;;;;;;5087750;28;20553;-71
2022/05/24 04:20:07;;;;;;;10.57;9.15;;;13.10;99.90;;;;;;5094854;27;20220;-70
2022/05/24 04:22:57;;;;;;;13.48;9.57;;;13.20;99.90;;;;;;5102599;27;20215;-70
2022/05/24 04:25:46;;;;;;;12.30;9.68;;;13.30;99.90;;;;;;5083725;27;20231;-71
2022/05/24 04:28:35;;;;;;;14.30;9.52;;;13.30;99.90;;;;;;5102736;27;20287;-70
2022/05/24 04:31:24;;;;;;;15.57;9.38;;;13.40;99.90;;;;;;5083459;28;20585;-71
2022/05/24 04:34:14;;;;;;;12.60;10.20;;;13.50;99.90;;;;;;5099218;27;20251;-71
2022/05/24 04:37:07;;;;;;;12.20;10.30;;;13.60;99.90;;;;;;5083672;28;20219;-70
2022/05/24 04:39:55;;;;;;;12.45;9.40;;;13.60;99.90;;;;;;5095836;27;20743;-71
2022/05/24 04:42:43;;;;;;;12.55;10.30;;;13.70;99.90;;;;;;5098559;27;20311;-69
2022/05/24 04:45:32;;;;;;;10.65;9.23;;;13.80;99.90;;;;;;5086114;27;20222;-70
2022/05/24 04:48:21;;;;;;;14.73;10.45;;;13.70;99.90;;;;;;5083715;27;20241;-70
2022/05/24 04:51:10;;;;;;;13.27;10.52;;;13.70;99.90;;;;;;5083602;27;20221;-70
2022/05/24 04:54:00;;;;;;;13.35;9.93;;;13.70;99.90;;;;;;5082481;27;20218;-70
2022/05/24 04:56:49;;;;;;;14.95;10.57;;;14.00;99.90;;;;;;5085338;27;20226;-71
2022/05/24 04:59:38;;;;;;;14.68;9.80;;;14.20;99.90;;;;;;5094549;28;20231;-71
2022/05/24 05:02:27;;;;;;;12.80;9.95;;;14.30;99.90;;;;;;5100325;27;20233;-70
2022/05/24 05:05:16;;;;;;;13.43;10.10;;;14.30;99.90;;;;;;5098852;27;20299;-70
2022/05/24 05:08:14;;;;;;;10.70;9.25;;;14.30;99.90;;;;;;5097614;27;20222;-72
2022/05/24 05:11:04;;;;;;;13.18;10.15;;;14.50;99.90;;;;;;5086363;28;20257;-70
2022/05/24 05:13:53;;;;;;;14.13;9.77;;;14.50;99.90;;;;;;5088100;28;20980;-72
2022/05/24 05:16:42;;;;;;;17.52;10.10;;;14.70;99.90;;;;;;5087518;28;20256;-71
2022/05/24 05:19:31;;;;;;;11.93;9.07;;;14.90;99.90;;;;;;5087662;28;20223;-71
2022/05/24 05:22:19;;;;;;;14.02;9.57;;;15.10;99.90;;;;;;5107047;27;20235;-71
2022/05/24 05:25:10;;;;;;;10.73;9.45;;;15.40;99.90;;;;;;5100504;27;20225;-71
2022/05/24 05:28:00;;;;;;;12.32;9.45;;;15.60;99.90;;;;;;5101061;27;20557;-71
2022/05/24 05:33:58;;;;;;;11.18;9.48;;;15.50;99.90;;;;;;5085006;28;20211;-70
2022/05/24 05:36:47;;;;;;;11.63;9.23;;;15.50;99.90;;;;;;5095582;27;20215;-70
2022/05/24 05:39:36;;;;;;;12.45;9.30;;;15.70;99.90;;;;;;5103351;27;20219;-71
2022/05/24 05:42:27;;;;;;;14.48;8.32;;;15.60;99.90;;;;;;5087075;28;20231;-71
2022/05/24 05:45:17;;;;;;;9.35;8.35;;;15.70;99.90;;;;;;5098534;27;20211;-71
2022/05/24 05:48:07;;;;;;;12.20;9.13;;;15.80;99.90;;;;;;5083929;28;20358;-71
2022/05/24 05:50:56;;;;;;;13.55;8.63;;;15.90;99.90;;;;;;5077294;27;20211;-71
2022/05/24 05:53:49;;;;;;;11.68;8.75;;;16.00;99.90;;;;;;5087040;28;20215;-72
2022/05/24 05:56:38;;;;;;;11.07;8.07;;;16.20;99.90;;;;;;5097542;27;20337;-71
2022/05/24 05:59:27;;;;;;;10.50;8.20;;;16.70;99.90;;;;;;5085017;27;20246;-72
2022/05/24 06:02:17;;;;;;;14.10;8.45;;;16.80;99.90;;;;;;5102134;27;20263;-72
2022/05/24 06:05:07;;;;;;;10.55;8.00;;;16.90;99.90;;;;;;5093911;27;20227;-73
2022/05/24 06:07:56;;;;;;;11.77;7.53;;;16.90;99.90;;;;;;5087782;27;20768;-71
2022/05/24 06:10:45;;;;;;;8.13;6.40;;;16.70;99.90;;;;;;5100950;27;20219;-71
2022/05/24 06:13:34;;;;;;;10.20;6.85;;;16.70;99.90;;;;;;5101178;27;20674;-71
2022/05/24 06:16:23;;;;;;;8.65;7.28;;;16.70;99.90;;;;;;5100488;27;20249;-71
2022/05/24 06:19:14;;;;;;;11.02;7.03;;;16.70;99.90;;;;;;5079334;28;20233;-73
2022/05/24 06:22:03;;;;;;;9.60;7.20;;;16.90;99.90;;;;;;5096787;27;20215;-72
2022/05/24 06:24:52;;;;;;;9.20;6.60;;;17.00;99.90;;;;;;5100233;27;20700;-71
2022/05/24 06:27:41;;;;;;;11.95;6.38;;;17.00;99.90;;;;;;5092270;27;20215;-70
2022/05/24 06:30:36;;;;;;;10.88;5.95;;;17.10;99.90;;;;;;5090184;27;20574;-71
2022/05/24 06:33:25;;;;;;;7.72;6.15;;;17.10;99.90;;;;;;5099221;27;20519;-70
2022/05/24 06:36:15;;;;;;;8.98;5.88;;;17.30;99.90;;;;;;5081207;28;20226;-70
2022/05/24 06:39:04;;;;;;;11.40;6.15;;;17.40;99.90;;;;;;5094878;27;20219;-69
2022/05/24 06:41:53;;;;;;;8.60;5.63;;;17.50;99.90;;;;;;5097903;27;20246;-70
2022/05/24 06:44:49;;;;;;;6.95;5.30;;;17.60;99.90;;;;;;5097168;27;20575;-72
2022/05/24 06:47:40;;;;;;;4.95;4.47;;;17.70;99.90;;;;;;5084382;27;20226;-75
2022/05/24 06:50:29;;;;;;;7.07;4.65;;;18.00;99.90;;;;;;5095096;27;20303;-71
2022/05/24 06:53:20;;;;;;;6.32;4.80;;;18.00;99.90;;;;;;5098305;27;20232;-73
2022/05/24 06:56:10;;;;;;;5.38;4.38;;;18.20;99.90;;;;;;5095743;28;20282;-74
2022/05/24 07:05:10;;;;;;;6.05;4.20;;;18.40;99.90;;;;;;5097405;27;20222;-72
2022/05/24 07:08:00;;;;;;;6.57;4.40;;;18.80;99.90;;;;;;5096963;27;20497;-72
2022/05/24 07:10:51;;;;;;;4.82;3.63;;;18.80;99.90;;;;;;5096953;28;20260;-70
2022/05/24 07:13:40;;;;;;;5.68;3.70;;;19.10;99.90;;;;;;5084460;27;20235;-71
2022/05/24 07:16:29;;;;;;;3.92;3.53;;;19.30;99.90;;;;;;5090805;28;20278;-72
2022/05/24 07:19:18;;;;;;;5.20;3.53;;;19.60;99.90;;;;;;5099605;28;20430;-72
2022/05/24 07:22:08;;;;;;;5.13;3.90;;;20.00;99.90;;;;;;5085188;28;20288;-70
2022/05/24 07:24:57;;;;;;;9.55;3.90;;;20.20;98.30;;;;;;5096436;28;20772;-71
2022/05/24 07:27:47;;;;;;;8.05;4.18;;;20.60;96.10;;;;;;5087849;28;20249;-70
2022/05/24 07:30:36;;;;;;;7.95;3.85;;;20.60;92.80;;;;;;5094625;28;20215;-70
2022/05/24 07:33:24;;;;;;;6.95;3.67;;;21.00;91.90;;;;;;5096889;28;20563;-71
2022/05/24 07:36:13;;;;;;;5.70;3.55;;;21.50;90.50;;;;;;5091161;28;20360;-71
2022/05/24 07:39:02;;;;;;;8.98;3.60;;;23.40;85.90;;;;;;5080617;28;20312;-71
2022/05/24 07:48:06;;;;;;;5.15;3.75;;;23.10;75.10;;;;;;5099568;28;20675;-71
2022/05/24 07:50:55;;;;;;;7.00;3.65;;;23.00;71.10;;;;;;5102092;28;20223;-71
2022/05/24 07:53:44;;;;;;;4.07;3.58;;;23.70;68.20;;;;;;5100887;28;20227;-72
2022/05/24 07:56:33;;;;;;;8.95;3.63;;;24.50;66.70;;;;;;5102621;28;20898;-72
2022/05/24 07:59:22;;;;;;;14.45;3.80;;;25.30;64.20;;;;;;5081196;28;20291;-72
2022/05/24 08:02:12;;;;;;;5.50;3.47;;;26.00;62.70;;;;;;5093822;28;20894;-73
2022/05/24 08:05:01;;;;;;;7.15;3.40;;;26.20;60.60;;;;;;5093812;28;20360;-72
2022/05/24 08:07:54;;;;;;;4.35;3.40;;;26.70;59.50;;;;;;5082986;28;20613;-72
2022/05/24 08:10:43;;;;;;;7.18;3.35;;;27.10;58.30;;;;;;5097437;28;20218;-72
2022/05/24 08:13:32;;;;;;;5.60;3.42;;;26.60;57.80;;;;;;5097518;28;20291;-73
2022/05/24 08:16:24;;;;;;;7.30;3.40;;;25.90;59.30;;;;;;5097972;28;20287;-73
2022/05/24 08:19:14;;;;;;;4.88;3.40;;;26.00;59.90;;;;;;5090544;28;20241;-75
2022/05/24 08:22:03;;;;;;;11.45;4.00;;;26.60;59.70;;;;;;5099673;27;20214;-73
2022/05/24 08:24:52;;;;;;;8.00;3.70;;;26.10;59.50;;;;;;5087800;27;20272;-74
2022/05/24 08:27:41;;;;;;;4.53;3.30;;;27.70;57.80;;;;;;5102290;27;20230;-73
2022/05/24 08:30:31;;;;;;;4.55;3.30;;;28.50;55.40;;;;;;5083804;27;20700;-73
2022/05/24 08:33:20;;;;;;;6.75;3.65;;;27.20;56.50;;;;;;5085149;27;20277;-73
2022/05/24 08:36:26;;;;;;;5.70;3.42;;;26.30;57.00;;;;;;5099125;27;20314;-72
2022/05/24 08:39:15;;;;;;;3.97;3.38;;;25.80;57.90;;;;;;5083223;28;20252;-73
2022/05/24 08:42:12;;;;;;;7.25;3.55;;;25.50;57.40;;;;;;5085257;27;20566;-76
2022/05/24 08:48:26;;;;;;;4.15;3.22;;;25.10;59.20;;;;;;5083211;27;20272;-74
2022/05/24 08:51:22;;;;;;;4.85;3.28;;;24.70;60.40;;;;;;5094509;27;20230;-74
2022/05/24 08:54:15;;;;;;;6.97;3.58;;;25.20;60.00;;;;;;5096268;27;20230;-72
2022/05/24 08:57:10;;;;;;;6.00;3.65;;;26.50;57.90;;;;;;5094212;27;20218;-76
2022/05/24 09:00:05;;;;;;;4.82;3.47;;;27.00;56.90;;;;;;5083559;27;20223;-72
2022/05/24 09:02:54;;;;;;;9.88;3.45;;;27.00;56.70;;;;;;5099321;27;20235;-72
2022/05/24 09:05:50;;;;;;;7.10;3.75;;;26.10;57.60;;;;;;5096988;27;20223;-71
2022/05/24 09:08:47;;;;;;;4.85;3.38;;;27.70;56.70;;;;;;5092552;27;20309;-71
2022/05/24 09:11:50;;;;;;;5.88;3.40;;;29.80;55.40;;;;;;5095430;28;20635;-77
2022/05/24 09:14:49;;;;;;;4.53;3.53;;;30.90;52.20;;;;;;5082316;27;20301;-75
2022/05/24 09:17:49;;;;;;;7.90;3.47;;;29.80;52.30;;;;;;5095723;27;20244;-76
2022/05/24 09:20:40;;;;;;;4.35;3.10;;;29.00;53.20;;;;;;5079213;28;20384;-76
2022/05/24 09:23:34;;;;;;;4.43;3.28;;;29.30;53.10;;;;;;5096786;27;20313;-77
2022/05/24 09:26:24;;;;;;;6.13;3.80;;;28.80;52.30;;;;;;5083862;28;20303;-77
2022/05/24 09:29:17;;;;;;;5.40;3.38;;;28.90;52.90;;;;;;5097325;27;20298;-76
2022/05/24 09:32:09;;;;;;;3.90;3.20;;;29.00;52.40;;;;;;5081599;27;20230;-76
2022/05/24 09:35:21;;;;;;;4.50;3.42;;;29.70;52.90;;;;;;5090264;27;20771;-78
2022/05/24 09:38:16;;;;;;;3.33;3.03;;;30.00;51.90;;;;;;5085169;28;20291;-75
2022/05/24 09:41:15;;;;;;;6.13;3.50;;;29.90;51.10;;;;;;5093442;27;20235;-75
2022/05/24 09:44:06;;;;;;;4.82;3.50;;;28.70;52.60;;;;;;5101820;27;20215;-75
2022/05/24 09:46:57;;;;;;;5.43;3.90;;;28.60;52.70;;;;;;5100065;27;20219;-77
2022/05/24 09:49:46;;;;;;;10.43;3.83;;;26.90;53.50;;;;;;5098174;28;20720;-73
2022/05/24 09:52:34;;;;;;;6.32;3.60;;;27.50;54.00;;;;;;5080590;28;20665;-72
2022/05/24 09:55:24;;;;;;;4.25;3.17;;;28.70;53.80;;;;;;5096102;27;21072;-71
2022/05/24 09:58:32;;;;;;;4.35;3.40;;;28.00;53.70;;;;;;5081024;28;20226;-71
2022/05/24 10:01:31;;;;;;;7.35;3.45;;;27.10;53.90;;;;;;5091211;27;20301;-71
2022/05/24 10:04:28;;;;;;;5.45;3.50;;;25.30;56.20;;;;;;5093416;27;20223;-72
2022/05/24 10:07:24;;;;;;;3.80;3.13;;;25.20;57.90;;;;;;5082743;28;20215;-71
2022/05/24 10:10:16;;;;;;;6.80;2.83;;;25.00;58.00;;;;;;5098535;28;20227;-71
2022/05/24 10:13:12;;;;;;;4.63;2.85;;;24.90;57.70;;;;;;5085460;27;20223;-73
2022/05/24 10:16:12;;;;;;;4.65;3.00;;;24.70;58.40;;;;;;5097983;28;20228;-72
2022/05/24 10:19:38;;;;;;;3.83;2.97;;;24.60;58.70;;;;;;5073207;28;20252;-71
2022/05/24 10:22:38;;;;;;;8.05;3.10;;;24.60;58.50;;;;;;5062338;28;20772;-71
2022/05/24 10:25:32;;;;;;;4.35;2.97;;;24.30;58.40;;;;;;5076664;28;20212;-71
2022/05/24 10:28:37;;;;;;;4.85;3.30;;;24.00;59.10;;;;;;5057368;28;20694;-71
2022/05/24 10:31:41;;;;;;;5.07;2.85;;;24.20;59.20;;;;;;5056233;28;20227;-75
2022/05/24 10:41:14;;;;;;;4.93;2.95;;;23.50;60.50;;;;;;5068002;28;20344;-72
2022/05/24 10:44:07;;;;;;;7.10;3.08;;;23.30;60.00;;;;;;5065438;28;20612;-73
2022/05/24 10:47:05;;;;;;;6.97;2.90;;;23.20;60.20;;;;;;5072400;28;20220;-72
2022/05/24 10:50:01;;;;;;;4.38;2.80;;;23.40;59.70;;;;;;5074705;28;20235;-73
2022/05/24 10:52:57;;;;;;;3.45;2.92;;;23.50;59.60;;;;;;5075164;28;21070;-72
2022/05/24 10:55:49;;;;;;;6.47;2.78;;;23.40;59.00;;;;;;5061942;28;20302;-73
2022/05/24 10:58:42;;;;;;;4.15;2.50;;;23.40;59.60;;;;;;5077938;28;20708;-72
2022/05/24 11:01:41;;;;;;;6.03;3.15;;;23.30;59.60;;;;;;5059839;28;20293;-72
2022/05/24 11:04:40;;;;;;;2.97;2.55;;;23.20;59.50;;;;;;5076809;28;20235;-72
2022/05/24 11:07:34;;;;;;;6.00;2.78;;;23.30;59.90;;;;;;5072202;28;20232;-70
2022/05/24 11:10:26;;;;;;;6.78;3.50;;;23.90;59.10;;;;;;5068723;28;20233;-70
2022/05/24 11:13:20;;;;;;;7.72;3.72;;;24.00;59.00;;;;;;5066272;28;20349;-68
2022/05/24 11:16:13;;;;;;;7.90;3.03;;;24.20;59.20;;;;;;5079592;28;20651;-72
2022/05/24 11:19:02;;;;;;;4.28;2.80;;;23.80;59.70;;;;;;5087052;27;20223;-71
2022/05/24 11:21:59;;;;;;;8.93;3.00;;;23.30;60.80;;;;;;5086903;28;20219;-72
2022/05/24 11:24:53;;;;;;;5.72;2.60;;;23.20;62.00;;;;;;5098700;27;20755;-71
2022/05/24 11:27:47;;;;;;;3.40;2.58;;;22.90;61.70;;;;;;5101211;28;20303;-71
2022/05/24 11:30:38;;;;;;;5.57;2.70;;;22.50;62.60;;;;;;5088145;28;20222;-72
2022/05/24 11:33:39;;;;;;;3.72;2.33;;;22.30;63.50;;;;;;5080111;28;20598;-72
2022/05/24 11:36:39;;;;;;;5.80;2.78;;;22.20;63.10;;;;;;5099456;28;20234;-72
2022/05/24 11:39:31;;;;;;;4.57;2.80;;;22.30;64.50;;;;;;5100173;28;20228;-71
2022/05/24 11:42:43;;;;;;;6.15;2.78;;;22.30;63.60;;;;;;5092763;28;20313;-70
2022/05/24 11:46:00;;;;;;;4.85;2.60;;;22.30;64.00;;;;;;5082337;28;20218;-71
2022/05/24 11:48:51;;;;;;;6.32;2.85;;;22.30;63.30;;;;;;5081530;28;20513;-71
2022/05/24 11:51:44;;;;;;;3.85;2.75;;;22.30;63.60;;;;;;5098951;28;20214;-70
2022/05/24 11:54:54;;;;;;;4.45;2.50;;;22.60;63.00;;;;;;5096148;28;20249;-71
2022/05/24 11:57:44;;;;;;;2.83;2.55;;;23.00;62.00;;;;;;5104291;27;20622;-71
2022/05/24 12:00:34;;;;;;;12.35;3.33;;;23.30;61.60;;;;;;5100441;27;20387;-73
2022/05/24 12:09:55;;;;;;;2.67;2.38;;;23.10;62.00;;;;;;5084147;28;20708;-71
2022/05/24 12:12:55;;;;;;;6.15;2.63;;;23.10;62.40;;;;;;5068147;28;20223;-72
2022/05/24 12:15:50;;;;;;;4.70;2.58;;;23.00;61.60;;;;;;5084445;28;20305;-72
2022/05/24 12:18:54;;;;;;;3.50;2.53;;;23.10;62.60;;;;;;5103602;27;20230;-68
2022/05/24 12:22:04;;;;;;;6.55;2.60;;;23.20;61.90;;;;;;5090074;28;20305;-70
2022/05/24 12:25:02;;;;;;;6.00;2.47;;;23.20;61.60;;;;;;5102945;27;20235;-71
2022/05/24 12:27:54;;;;;;;7.22;2.40;;;23.30;61.20;;;;;;5090131;27;20269;-70
2022/05/24 12:30:47;;;;;;;5.85;2.33;;;23.20;61.10;;;;;;5103027;27;20355;-70
2022/05/24 12:33:39;;;;;;;6.20;2.50;;;23.10;61.20;;;;;;5083839;28;20307;-71
2022/05/24 12:36:33;;;;;;;6.43;2.55;;;23.30;61.70;;;;;;5090907;27;20688;-70
2022/05/24 12:39:42;;;;;;;3.35;2.30;;;23.20;62.30;;;;;;5091792;28;20244;-70
2022/05/24 12:42:31;;;;;;;4.82;2.53;;;22.90;62.30;;;;;;5098058;27;20223;-72
2022/05/24 12:45:29;;;;;;;4.72;2.60;;;22.90;62.80;;;;;;5101245;27;20222;-73
2022/05/24 12:48:34;;;;;;;9.77;2.58;;;22.60;63.20;;;;;;5095402;27;20227;-75
2022/05/24 12:51:23;;;;;;;4.43;2.40;;;22.50;62.70;;;;;;5095010;27;20239;-73
2022/05/24 12:54:14;;;;;;;4.78;2.53;;;22.60;62.80;;;;;;5079592;28;20245;-70
2022/05/24 12:57:06;;;;;;;3.08;2.45;;;22.60;63.20;;;;;;5098532;27;20222;-71
2022/05/24 12:59:57;;;;;;;3.90;2.00;;;22.70;63.40;;;;;;5092714;28;20299;-80
2022/05/24 13:02:49;;;;;;;6.57;2.40;;;22.90;63.40;;;;;;5069319;28;20361;-77
2022/05/24 13:05:54;;;;;;;5.28;2.20;;;22.90;63.50;;;;;;5094674;27;20221;-78
2022/05/24 13:08:42;;;;;;;3.88;2.20;;;22.70;63.50;;;;;;5087171;27;20586;-79
2022/05/24 13:11:31;;;;;;;5.15;2.17;;;22.60;63.80;;;;;;5079859;28;20733;-78
2022/05/24 13:14:44;;;;;;;2.50;2.30;;;22.40;63.60;;;;;;5098701;27;20219;-78
2022/05/24 13:17:41;;;;;;;5.80;2.28;;;22.30;63.70;;;;;;5086985;27;20227;-77
2022/05/24 13:20:36;;;;;;;4.60;2.00;;;22.20;63.60;;;;;;5065755;28;20302;-77
2022/05/24 13:23:28;;;;;;;5.57;2.20;;;22.00;62.80;;;;;;5075203;28;20676;-79
2022/05/24 13:26:19;;;;;;;3.72;2.22;;;22.00;63.30;;;;;;5108289;27;20452;-82
2022/05/24 13:29:29;;;;;;;5.20;2.53;;;22.00;63.30;;;;;;5083971;27;20740;-74
2022/05/24 13:35:26;;;;;;;3.55;2.20;;;21.90;64.90;;;;;;5081676;27;20295;-74
2022/05/24 13:38:24;;;;;;;7.50;2.35;;;21.80;65.40;;;;;;5099363;27;20254;-73
2022/05/24 13:41:25;;;;;;;3.22;2.20;;;21.80;65.80;;;;;;5083201;28;20230;-74
2022/05/24 13:44:25;;;;;;;4.25;2.00;;;21.80;66.60;;;;;;5083186;27;21121;-74
2022/05/24 13:47:26;;;;;;;8.88;2.22;;;21.70;66.60;;;;;;5086816;28;20324;-77
2022/05/24 13:50:36;;;;;;;3.25;2.22;;;21.60;66.90;;;;;;5083521;28;20657;-75
2022/05/24 13:53:39;;;;;;;4.53;2.20;;;21.60;67.30;;;;;;5093920;27;20712;-76
2022/05/24 13:56:31;;;;;;;4.03;2.30;;;21.50;67.40;;;;;;5091525;27;20221;-72
2022/05/24 13:59:23;;;;;;;2.38;2.05;;;21.50;67.70;;;;;;5100877;27;20221;-73
2022/05/24 14:02:16;;;;;;;6.47;2.35;;;21.70;68.40;;;;;;5076328;27;20215;-73
2022/05/24 14:05:06;;;;;;;2.85;2.25;;;21.70;67.40;;;;;;5081847;27;20226;-74
2022/05/24 14:07:54;;;;;;;3.28;1.85;;;21.90;67.60;;;;;;5082351;27;20413;-72
2022/05/24 14:10:45;;;;;;;2.83;1.92;;;21.80;66.90;;;;;;5098160;27;20351;-73
2022/05/24 14:13:34;;;;;;;5.43;2.60;;;21.70;67.00;;;;;;5075748;28;20213;-72
2022/05/24 14:16:24;;;;;;;5.20;2.42;;;21.60;67.50;;;;;;5085598;27;20233;-71
2022/05/24 14:19:15;;;;;;;4.78;2.15;;;21.60;67.50;;;;;;5090674;28;20381;-73
2022/05/24 14:22:04;;;;;;;5.70;2.28;;;21.50;67.50;;;;;;5085451;27;20281;-73
2022/05/24 14:24:53;;;;;;;6.07;2.38;;;21.50;67.30;;;;;;5075949;27;20223;-76
2022/05/24 14:27:43;;;;;;;5.22;2.17;;;21.60;67.30;;;;;;5088280;27;20291;-74
2022/05/24 14:30:35;;;;;;;4.40;2.55;;;21.40;66.80;;;;;;5098192;27;20507;-72
2022/05/24 14:33:24;;;;;;;3.80;2.20;;;21.60;67.30;;;;;;5096314;27;20218;-72
2022/05/24 14:36:13;;;;;;;5.20;2.63;;;21.60;67.30;;;;;;5089288;27;20432;-73
2022/05/24 14:39:04;;;;;;;5.32;2.40;;;21.50;67.00;;;;;;5062809;28;20761;-73
2022/05/24 14:41:53;;;;;;;5.78;2.72;;;21.50;67.10;;;;;;5086992;27;20358;-73
2022/05/24 14:44:43;;;;;;;3.55;2.25;;;21.60;67.10;;;;;;5096115;28;20238;-72
2022/05/24 14:47:32;;;;;;;3.60;2.42;;;21.60;66.80;;;;;;5076730;28;20279;-72
2022/05/24 14:50:21;;;;;;;4.60;2.00;;;21.70;67.30;;;;;;5094568;28;20222;-72
2022/05/24 14:53:10;;;;;;;5.63;2.40;;;21.50;72.10;;;;;;5080160;28;20231;-72
2022/05/24 14:55:58;;;;;;;4.15;2.50;;;21.20;84.20;;;;;;5094203;28;20278;-72
2022/05/24 14:58:47;;;;;;;6.28;2.20;;;21.40;78.50;;;;;;5097502;28;20396;-73
2022/05/24 15:01:38;;;;;;;7.35;2.30;;;21.40;74.80;;;;;;5081458;28;20343;-73
2022/05/24 15:04:30;;;;;;;4.45;2.40;;;21.40;74.30;;;;;;5080262;27;20215;-73
2022/05/24 15:16:38;;;;;;;3.28;2.97;;;21.40;73.60;;;;;;5068700;28;20227;-72
2022/05/24 15:19:27;;;;;;;6.10;2.40;;;21.40;73.90;;;;;;5075479;28;20728;-73
2022/05/24 15:22:16;;;;;;;6.40;2.50;;;21.40;74.00;;;;;;5080955;28;20237;-73
2022/05/24 15:25:08;;;;;;;4.70;2.60;;;21.30;74.20;;;;;;5092948;27;20238;-72
2022/05/24 15:27:58;;;;;;;5.72;3.00;;;21.30;74.30;;;;;;5081717;28;20503;-72
2022/05/24 15:30:47;;;;;;;5.20;2.90;;;21.30;74.60;;;;;;5098796;28;20260;-72
2022/05/24 15:33:38;;;;;;;8.70;2.65;;;21.20;75.10;;;;;;5102145;28;20214;-72
2022/05/24 15:36:27;;;;;;;3.40;2.30;;;21.20;74.80;;;;;;5097801;28;20223;-71
2022/05/24 15:39:16;;;;;;;4.10;2.10;;;21.00;74.80;;;;;;5081084;28;20211;-72
2022/05/24 15:42:08;;;;;;;5.50;2.40;;;21.00;75.40;;;;;;5098682;28;20222;-71
2022/05/24 15:44:57;;;;;;;7.72;2.63;;;21.00;76.30;;;;;;5075112;28;20231;-72
2022/05/24 15:47:46;;;;;;;2.83;2.60;;;21.10;76.00;;;;;;5094741;28;20780;-72
2022/05/24 15:50:37;;;;;;;7.03;2.47;;;21.10;76.10;;;;;;5093839;28;20223;-73
2022/05/24 15:53:26;;;;;;;6.65;3.10;;;21.10;77.00;;;;;;5096254;28;20223;-71